createdAt,value
2019-02-12T00:01:02.020Z,20.27
2019-02-12T00:03:31.194Z,22.47
2019-02-12T00:06:00.325Z,16.60
2019-02-12T00:08:29.569Z,17.53
2019-02-12T00:10:58.863Z,19.17
2019-02-12T00:13:28.074Z,20.33
2019-02-12T00:15:57.342Z,19.20
2019-02-12T00:18:26.566Z,19.37
2019-02-12T00:20:55.716Z,16.27
2019-02-12T00:23:24.951Z,14.33
2019-02-12T00:25:54.162Z,13.50
2019-02-12T00:28:23.377Z,19.17
2019-02-12T00:30:52.549Z,15.87
2019-02-12T00:33:21.798Z,20.00
2019-02-12T00:35:50.981Z,15.03
2019-02-12T00:38:20.156Z,20.03
2019-02-12T00:40:49.335Z,18.00
2019-02-12T00:43:18.586Z,19.07
2019-02-12T00:45:47.710Z,23.70
2019-02-12T00:48:16.866Z,19.43
2019-02-12T00:50:46.010Z,16.17
2019-02-12T00:53:15.227Z,13.87
2019-02-12T00:55:44.467Z,17.83
2019-02-12T00:58:13.710Z,14.83
2019-02-12T01:00:42.829Z,18.07
2019-02-12T01:03:12.037Z,16.57
2019-02-12T01:05:41.192Z,18.10
2019-02-12T01:08:10.429Z,16.40
2019-02-12T01:10:39.654Z,18.60
2019-02-12T01:13:08.805Z,13.60
2019-02-12T01:15:37.947Z,15.90
2019-02-12T01:18:07.111Z,15.57
2019-02-12T01:20:36.262Z,19.00
2019-02-12T01:23:05.483Z,15.20
2019-02-12T01:25:34.657Z,17.80
2019-02-12T01:28:03.800Z,15.67
2019-02-12T01:30:32.972Z,16.73
2019-02-12T01:33:02.158Z,13.40
2019-02-12T01:35:31.364Z,11.07
2019-02-12T01:38:00.588Z,13.40
2019-02-12T01:40:30.209Z,15.73
2019-02-12T01:43:05.325Z,13.07
2019-02-12T01:45:34.458Z,12.67
2019-02-12T01:48:03.643Z,14.27
2019-02-12T01:50:32.869Z,14.07
2019-02-12T01:53:02.070Z,19.07
2019-02-12T01:55:31.210Z,14.27
2019-02-12T01:58:00.441Z,13.83
2019-02-12T02:00:29.845Z,11.27
2019-02-12T02:02:59.091Z,11.00
2019-02-12T02:05:28.299Z,13.63
2019-02-12T02:07:57.533Z,13.27
2019-02-12T02:10:26.686Z,11.57
2019-02-12T02:12:55.924Z,10.40
2019-02-12T02:15:25.175Z,10.23
2019-02-12T02:17:54.306Z,10.03
2019-02-12T02:20:23.430Z,10.50
2019-02-12T02:22:52.698Z,10.13
2019-02-12T02:25:21.830Z,10.90
2019-02-12T02:27:50.986Z,9.93
2019-02-12T02:30:20.155Z,9.30
2019-02-12T02:32:49.407Z,8.00
2019-02-12T02:35:18.618Z,7.03
2019-02-12T02:37:47.757Z,6.30
2019-02-12T02:40:16.942Z,8.07
2019-02-12T02:42:46.083Z,7.60
2019-02-12T02:45:15.314Z,6.30
2019-02-12T02:47:44.457Z,6.50
2019-02-12T02:50:13.604Z,5.30
2019-02-12T02:52:42.765Z,7.77
2019-02-12T02:55:11.906Z,6.13
2019-02-12T02:57:41.225Z,10.10
2019-02-12T03:00:10.582Z,6.20
2019-02-12T03:02:39.717Z,9.20
2019-02-12T03:05:09.990Z,7.23
2019-02-12T03:07:39.231Z,6.47
2019-02-12T03:10:08.796Z,7.13
2019-02-12T03:12:37.991Z,9.27
2019-02-12T03:15:08.167Z,6.50
2019-02-12T03:17:37.318Z,11.07
2019-02-12T03:20:07.746Z,7.67
2019-02-12T03:22:36.890Z,9.40
2019-02-12T03:25:06.357Z,10.10
2019-02-12T03:27:35.522Z,8.97
2019-02-12T03:30:05.191Z,9.37
2019-02-12T03:32:34.393Z,6.20
2019-02-12T03:35:03.794Z,8.50
2019-02-12T03:37:32.938Z,7.87
2019-02-12T03:40:02.087Z,6.37
2019-02-12T03:42:31.214Z,5.63
2019-02-12T03:45:00.531Z,6.83
2019-02-12T03:47:29.791Z,8.43
2019-02-12T03:49:59.059Z,6.93
2019-02-12T03:52:28.215Z,4.07
2019-02-12T03:54:57.394Z,6.90
2019-02-12T03:57:26.522Z,8.73
2019-02-12T03:59:55.854Z,9.33
2019-02-12T04:02:25.050Z,9.47
2019-02-12T04:04:54.195Z,11.17
2019-02-12T04:07:23.329Z,8.53
2019-02-12T04:09:52.482Z,6.63
2019-02-12T04:12:21.706Z,8.53
2019-02-12T04:14:50.898Z,7.30
2019-02-12T04:17:20.031Z,11.03
2019-02-12T04:19:49.177Z,10.73
2019-02-12T04:22:22.533Z,8.77
2019-02-12T04:24:49.198Z,6.53
2019-02-12T04:27:18.405Z,9.43
2019-02-12T04:29:47.570Z,7.93
2019-02-12T04:32:16.716Z,10.27
2019-02-12T04:34:45.879Z,9.33
2019-02-12T04:37:15.025Z,12.67
2019-02-12T04:39:44.156Z,9.80
2019-02-12T04:42:13.296Z,7.00
2019-02-12T04:44:42.422Z,10.10
2019-02-12T04:47:11.563Z,12.20
2019-02-12T04:49:40.702Z,8.13
2019-02-12T04:52:09.830Z,8.73
2019-02-12T04:54:38.989Z,10.10
2019-02-12T04:57:08.131Z,11.30
2019-02-12T04:59:37.313Z,15.00
2019-02-12T05:02:06.486Z,12.03
2019-02-12T05:04:35.610Z,12.80
2019-02-12T05:07:04.814Z,13.73
2019-02-12T05:09:34.864Z,12.53
2019-02-12T05:12:06.023Z,11.83
2019-02-12T05:14:35.293Z,9.77
2019-02-12T05:17:04.463Z,9.83
2019-02-12T05:19:33.682Z,13.27
2019-02-12T05:22:02.816Z,11.70
2019-02-12T05:24:31.942Z,13.60
2019-02-12T05:27:01.107Z,12.20
2019-02-12T05:29:30.248Z,12.20
2019-02-12T05:31:59.450Z,12.87
2019-02-12T05:34:28.600Z,13.70
2019-02-12T05:36:57.843Z,12.77
2019-02-12T05:39:26.992Z,18.40
2019-02-12T05:41:56.110Z,18.13
2019-02-12T05:44:25.392Z,15.37
2019-02-12T05:46:54.563Z,19.80
2019-02-12T05:49:23.708Z,16.87
2019-02-12T05:51:52.880Z,19.40
2019-02-12T05:54:22.031Z,18.33
2019-02-12T05:56:51.210Z,19.03
2019-02-12T05:59:20.382Z,26.53
2019-02-12T06:01:49.609Z,18.63
2019-02-12T06:04:18.782Z,15.43
2019-02-12T06:06:47.913Z,18.03
2019-02-12T06:09:17.138Z,20.77
2019-02-12T06:11:52.743Z,18.03
2019-02-12T06:14:21.946Z,21.40
2019-02-12T06:16:51.139Z,19.60
2019-02-12T06:19:20.298Z,20.73
2019-02-12T06:21:49.541Z,18.93
2019-02-12T06:24:18.675Z,26.87
2019-02-12T06:26:47.886Z,26.33
2019-02-12T06:29:17.121Z,31.50
2019-02-12T06:31:46.318Z,21.23
2019-02-12T06:34:15.545Z,26.03
2019-02-12T06:36:44.678Z,27.27
2019-02-12T06:39:13.851Z,26.03
2019-02-12T06:41:43.081Z,26.83
2019-02-12T06:44:12.303Z,19.73
2019-02-12T06:46:41.470Z,21.73
2019-02-12T06:49:10.682Z,21.73
2019-02-12T06:51:39.901Z,28.73
2019-02-12T06:54:09.048Z,35.03
2019-02-12T06:56:38.192Z,37.90
2019-02-12T06:59:07.418Z,28.60
2019-02-12T07:01:36.574Z,30.90
2019-02-12T07:04:29.711Z,26.03
2019-02-12T07:07:47.774Z,23.87
2019-02-12T07:10:26.875Z,27.40
2019-02-12T07:13:24.891Z,24.70
2019-02-12T07:16:19.408Z,18.60
2019-02-12T07:19:15.182Z,25.03
2019-02-12T07:22:09.914Z,20.60
2019-02-12T07:24:59.334Z,29.17
2019-02-12T07:28:08.637Z,34.73
2019-02-12T07:31:03.565Z,27.43
2019-02-12T07:34:02.834Z,28.47
2019-02-12T07:37:02.636Z,23.90
2019-02-12T07:39:56.638Z,27.60
2019-02-12T07:43:13.429Z,27.93
2019-02-12T07:46:16.836Z,23.73
2019-02-12T07:49:14.312Z,17.17
2019-02-12T07:52:36.094Z,21.53
2019-02-12T07:55:20.662Z,21.27
2019-02-12T07:58:29.538Z,28.77
2019-02-12T08:01:16.803Z,24.03
2019-02-12T08:04:24.624Z,22.80
2019-02-12T08:07:33.993Z,21.47
2019-02-12T08:10:34.890Z,23.13
2019-02-12T08:14:00.483Z,23.97
2019-02-12T08:17:10.025Z,18.40
2019-02-12T08:20:35.754Z,25.40
2019-02-12T08:23:41.109Z,22.90
2019-02-12T08:26:42.368Z,24.17
2019-02-12T08:29:34.337Z,22.87
2019-02-12T08:32:39.950Z,18.40
2019-02-12T08:35:42.494Z,23.30
2019-02-12T08:38:35.509Z,25.47
2019-02-12T08:41:55.378Z,27.57
2019-02-12T08:44:52.845Z,24.73
2019-02-12T08:47:57.866Z,17.67
2019-02-12T08:51:08.691Z,19.63
2019-02-12T08:54:14.840Z,16.60
2019-02-12T08:57:03.039Z,23.37
2019-02-12T08:59:58.337Z,25.57
2019-02-12T09:03:07.943Z,26.80
2019-02-12T09:06:08.458Z,25.83
2019-02-12T09:08:55.209Z,26.57
2019-02-12T09:11:49.711Z,22.87
2019-02-12T09:15:06.577Z,22.37
2019-02-12T09:18:13.854Z,25.33
2019-02-12T09:21:26.009Z,24.17
2019-02-12T09:24:20.018Z,26.67
2019-02-12T09:27:15.665Z,21.97
2019-02-12T09:30:07.911Z,22.00
2019-02-12T09:33:07.145Z,16.17
2019-02-12T09:35:59.366Z,21.70
2019-02-12T09:38:53.418Z,14.17
2019-02-12T09:41:50.950Z,15.80
2019-02-12T09:45:03.126Z,18.90
2019-02-12T09:48:18.706Z,21.13
2019-02-12T09:51:17.975Z,15.67
2019-02-12T09:54:11.458Z,16.43
2019-02-12T09:57:21.693Z,17.83
2019-02-12T10:00:30.679Z,15.43
2019-02-12T10:03:23.518Z,17.47
2019-02-12T10:06:26.705Z,22.17
2019-02-12T10:09:51.822Z,20.10
2019-02-12T10:13:03.245Z,18.47
2019-02-12T10:16:22.304Z,19.53
2019-02-12T10:19:44.318Z,17.37
2019-02-12T10:22:38.125Z,15.77
2019-02-12T10:25:34.459Z,32.50
2019-02-12T10:28:48.412Z,23.53
2019-02-12T10:31:40.827Z,17.97
2019-02-12T10:34:10.357Z,18.83
2019-02-12T10:36:39.549Z,25.40
2019-02-12T10:39:13.648Z,21.37
2019-02-12T10:41:42.988Z,19.43
2019-02-12T10:44:12.154Z,25.03
2019-02-12T10:46:41.405Z,25.37
2019-02-12T10:49:10.631Z,25.53
2019-02-12T10:51:39.919Z,31.13
2019-02-12T10:54:09.142Z,38.13
2019-02-12T10:56:38.306Z,30.17
2019-02-12T10:59:07.450Z,29.60
2019-02-12T11:01:36.599Z,25.27
2019-02-12T11:04:05.772Z,26.70
2019-02-12T11:06:35.058Z,25.93
2019-02-12T11:09:05.470Z,19.17
2019-02-12T11:11:34.681Z,21.00
2019-02-12T11:14:03.905Z,26.40
2019-02-12T11:16:33.238Z,29.37
2019-02-12T11:19:02.569Z,19.00
2019-02-12T11:21:31.809Z,21.57
2019-02-12T11:24:00.997Z,22.07
2019-02-12T11:26:31.330Z,21.57
2019-02-12T11:29:00.497Z,20.80
2019-02-12T11:31:29.631Z,22.87
2019-02-12T11:33:58.794Z,26.30
2019-02-12T11:36:27.963Z,24.50
2019-02-12T11:38:57.186Z,19.57
2019-02-12T11:41:26.329Z,40.37
2019-02-12T11:43:55.503Z,23.30
2019-02-12T11:46:24.637Z,19.27
2019-02-12T11:48:53.773Z,21.37
2019-02-12T11:51:22.895Z,20.00
2019-02-12T11:53:52.140Z,24.37
2019-02-12T11:56:21.286Z,21.53
2019-02-12T11:58:50.466Z,17.60
2019-02-12T12:01:22.861Z,16.43
2019-02-12T12:03:52.064Z,17.63
2019-02-12T12:06:21.257Z,22.20
2019-02-12T12:08:50.583Z,22.43
2019-02-12T12:11:19.787Z,19.67
2019-02-12T12:13:49.008Z,25.47
2019-02-12T12:16:18.235Z,18.53
2019-02-12T12:18:47.378Z,13.57
2019-02-12T12:21:16.535Z,18.77
2019-02-12T12:23:45.773Z,14.70
2019-02-12T12:26:14.962Z,19.27
2019-02-12T12:28:44.316Z,22.17
2019-02-12T12:31:13.450Z,16.03
2019-02-12T12:33:42.613Z,17.37
2019-02-12T12:36:11.746Z,18.93
2019-02-12T12:38:40.981Z,18.97
2019-02-12T12:41:10.338Z,20.80
2019-02-12T12:43:39.466Z,16.97
2019-02-12T12:46:08.622Z,24.57
2019-02-12T12:48:37.763Z,20.13
2019-02-12T12:51:06.949Z,23.53
2019-02-12T12:53:36.139Z,23.97
2019-02-12T12:56:05.266Z,18.70
2019-02-12T12:58:34.398Z,20.57
2019-02-12T13:01:03.550Z,19.60
2019-02-12T13:03:32.677Z,25.20
2019-02-12T13:06:01.901Z,24.60
2019-02-12T13:08:31.112Z,15.27
2019-02-12T13:11:00.297Z,16.10
2019-02-12T13:13:29.446Z,20.47
2019-02-12T13:15:58.746Z,20.83
2019-02-12T13:18:27.870Z,18.90
2019-02-12T13:20:57.030Z,16.47
2019-02-12T13:23:26.201Z,15.30
2019-02-12T13:25:55.375Z,16.77
2019-02-12T13:28:24.498Z,21.63
2019-02-12T13:30:53.734Z,18.70
2019-02-12T13:33:22.867Z,14.63
2019-02-12T13:35:52.069Z,14.37
2019-02-12T13:38:21.202Z,26.77
2019-02-12T13:40:50.326Z,19.33
2019-02-12T13:43:19.505Z,16.43
2019-02-12T13:45:48.630Z,17.07
2019-02-12T13:48:17.849Z,17.73
2019-02-12T13:50:47.015Z,14.97
2019-02-12T13:53:16.150Z,15.67
2019-02-12T13:55:45.340Z,13.30
2019-02-12T13:58:14.462Z,21.13
2019-02-12T14:00:43.614Z,16.57
2019-02-12T14:03:12.990Z,19.97
2019-02-12T14:05:42.198Z,18.83
2019-02-12T14:08:11.324Z,16.77
2019-02-12T14:10:40.518Z,18.20
2019-02-12T14:13:09.654Z,18.37
2019-02-12T14:15:38.822Z,20.80
2019-02-12T14:18:08.087Z,18.03
2019-02-12T14:20:37.297Z,19.03
2019-02-12T14:23:06.431Z,19.03
2019-02-12T14:25:35.578Z,24.63
2019-02-12T14:28:04.829Z,17.67
2019-02-12T14:30:34.001Z,20.73
2019-02-12T14:33:03.228Z,23.03
2019-02-12T14:35:32.444Z,20.70
2019-02-12T14:38:01.605Z,20.97
2019-02-12T14:40:30.894Z,23.57
2019-02-12T14:43:00.082Z,20.00
2019-02-12T14:45:29.233Z,17.27
2019-02-12T14:47:58.409Z,28.80
2019-02-12T14:50:27.573Z,24.00
2019-02-12T14:52:56.698Z,22.00
2019-02-12T14:55:33.389Z,27.23
2019-02-12T14:57:57.388Z,31.43
2019-02-12T15:00:26.773Z,37.60
2019-02-12T15:02:55.967Z,24.00
2019-02-12T15:05:25.162Z,31.27
2019-02-12T15:07:54.332Z,35.30
2019-02-12T15:10:23.582Z,25.83
2019-02-12T15:12:52.814Z,22.53
2019-02-12T15:15:22.219Z,41.80
2019-02-12T15:17:51.434Z,20.13
2019-02-12T15:20:20.662Z,25.57
2019-02-12T15:22:49.829Z,39.53
2019-02-12T15:25:18.962Z,32.87
2019-02-12T15:27:48.137Z,24.23
2019-02-12T15:30:17.362Z,24.87
2019-02-12T15:32:46.582Z,29.63
2019-02-12T15:35:15.714Z,28.70
2019-02-12T15:37:44.897Z,30.37
2019-02-12T15:40:14.362Z,28.97
2019-02-12T15:42:43.742Z,24.10
2019-02-12T15:45:14.787Z,33.67
2019-02-12T15:47:43.986Z,26.40
2019-02-12T15:50:13.145Z,42.37
2019-02-12T15:52:42.326Z,29.47
2019-02-12T15:55:12.287Z,37.67
2019-02-12T15:57:45.149Z,31.47
2019-02-12T16:00:18.073Z,33.57
2019-02-12T16:02:47.085Z,28.40
2019-02-12T16:05:16.260Z,24.20
2019-02-12T16:07:47.458Z,29.63
2019-02-12T16:10:19.245Z,35.60
2019-02-12T16:12:48.924Z,28.80
2019-02-12T16:15:21.522Z,39.27
2019-02-12T16:17:49.869Z,31.37
2019-02-12T16:20:19.105Z,31.13
2019-02-12T16:22:48.431Z,46.73
2019-02-12T16:25:17.718Z,27.77
2019-02-12T16:27:47.069Z,31.80
2019-02-12T16:30:17.174Z,34.77
2019-02-12T16:32:46.430Z,25.23
2019-02-12T16:35:16.111Z,35.77
2019-02-12T16:37:45.383Z,31.10
2019-02-12T16:40:14.723Z,29.53
2019-02-12T16:42:43.978Z,35.00
2019-02-12T16:45:15.982Z,38.60
2019-02-12T16:47:45.143Z,30.00
2019-02-12T16:50:14.303Z,35.70
2019-02-12T16:52:43.535Z,32.13
2019-02-12T16:55:12.746Z,36.20
2019-02-12T16:57:41.958Z,40.53
2019-02-12T17:00:13.693Z,32.80
2019-02-12T17:02:42.941Z,31.63
2019-02-12T17:05:12.844Z,30.53
2019-02-12T17:07:43.105Z,25.13
2019-02-12T17:10:12.363Z,27.67
2019-02-12T17:12:41.646Z,35.13
2019-02-12T17:15:10.934Z,37.40
2019-02-12T17:17:40.169Z,30.30
2019-02-12T17:20:12.150Z,27.33
2019-02-12T17:22:41.654Z,26.50
2019-02-12T17:25:11.208Z,28.03
2019-02-12T17:27:40.354Z,26.67
2019-02-12T17:30:11.163Z,28.53
2019-02-12T17:32:40.354Z,36.60
2019-02-12T17:35:09.868Z,41.23
2019-02-12T17:37:39.021Z,38.23
2019-02-12T17:40:09.570Z,39.00
2019-02-12T17:42:38.787Z,39.70
2019-02-12T17:45:09.876Z,44.07
2019-02-12T17:47:39.022Z,38.27
2019-02-12T17:50:09.221Z,31.97
2019-02-12T17:52:38.389Z,38.83
2019-02-12T17:55:07.544Z,29.93
2019-02-12T17:57:36.697Z,36.43
2019-02-12T18:00:11.478Z,34.60
2019-02-12T18:02:41.633Z,30.20
2019-02-12T18:05:10.908Z,32.87
2019-02-12T18:07:40.047Z,28.93
2019-02-12T18:10:09.279Z,34.37
2019-02-12T18:12:38.533Z,28.60
2019-02-12T18:15:08.459Z,30.93
2019-02-12T18:17:37.602Z,30.93
2019-02-12T18:20:07.659Z,38.87
2019-02-12T18:22:36.853Z,32.63
2019-02-12T18:25:06.626Z,28.80
2019-02-12T18:27:35.918Z,36.97
2019-02-12T18:30:06.859Z,34.23
2019-02-12T18:32:35.997Z,40.17
2019-02-12T18:35:05.311Z,38.30
2019-02-12T18:37:34.454Z,47.17
2019-02-12T18:40:03.782Z,24.83
2019-02-12T18:42:32.962Z,35.53
2019-02-12T18:45:02.117Z,36.50
2019-02-12T18:47:31.358Z,36.27
2019-02-12T18:50:00.534Z,37.53
2019-02-12T18:52:29.718Z,33.00
2019-02-12T18:54:58.858Z,31.47
2019-02-12T18:57:28.030Z,36.60
2019-02-12T18:59:57.230Z,31.77
2019-02-12T19:02:26.392Z,33.53
2019-02-12T19:04:55.554Z,28.67
2019-02-12T19:07:24.738Z,39.30
2019-02-12T19:09:53.989Z,40.77
2019-02-12T19:12:23.337Z,32.77
2019-02-12T19:14:52.544Z,52.83
2019-02-12T19:17:21.710Z,48.43
2019-02-12T19:19:50.850Z,40.97
2019-02-12T19:22:20.006Z,43.97
2019-02-12T19:24:49.170Z,45.10
2019-02-12T19:27:18.303Z,45.93
2019-02-12T19:29:47.479Z,50.50
2019-02-12T19:32:16.645Z,54.77
2019-02-12T19:34:45.799Z,62.07
2019-02-12T19:37:14.968Z,62.10
2019-02-12T19:39:44.341Z,63.63
2019-02-12T19:42:15.114Z,50.93
2019-02-12T19:44:44.294Z,53.83
2019-02-12T19:47:13.538Z,50.53
2019-02-12T19:49:42.693Z,55.57
2019-02-12T19:52:11.934Z,58.77
2019-02-12T19:54:41.129Z,52.03
2019-02-12T19:57:10.654Z,59.30
2019-02-12T19:59:40.038Z,54.03
2019-02-12T20:02:09.186Z,62.63
2019-02-12T20:04:38.406Z,52.70
2019-02-12T20:07:07.788Z,50.77
2019-02-12T20:09:36.932Z,46.50
2019-02-12T20:12:06.111Z,42.30
2019-02-12T20:14:35.350Z,47.47
2019-02-12T20:17:04.518Z,47.37
2019-02-12T20:19:33.653Z,50.80
2019-02-12T20:22:02.821Z,57.30
2019-02-12T20:24:31.991Z,55.17
2019-02-12T20:27:06.410Z,53.10
2019-02-12T20:29:32.102Z,62.50
2019-02-12T20:32:01.321Z,61.70
2019-02-12T20:34:30.718Z,59.80
2019-02-12T20:36:59.991Z,65.63
2019-02-12T20:39:29.147Z,55.93
2019-02-12T20:41:58.299Z,62.33
2019-02-12T20:44:27.466Z,63.60
2019-02-12T20:46:56.630Z,65.80
2019-02-12T20:49:25.910Z,51.87
2019-02-12T20:51:55.045Z,52.97
2019-02-12T20:54:24.196Z,62.17
2019-02-12T20:56:53.370Z,52.00
2019-02-12T20:59:22.570Z,51.20
2019-02-12T21:01:51.746Z,60.17
2019-02-12T21:04:20.886Z,65.83
2019-02-12T21:06:50.085Z,64.83
2019-02-12T21:09:19.234Z,66.60
2019-02-12T21:11:48.389Z,61.10
2019-02-12T21:14:17.533Z,70.33
2019-02-12T21:16:46.662Z,72.37
2019-02-12T21:19:15.889Z,64.40
2019-02-12T21:21:45.058Z,71.93
2019-02-12T21:24:14.289Z,79.40
2019-02-12T21:26:43.422Z,77.47
2019-02-12T21:29:12.569Z,68.60
2019-02-12T21:31:41.774Z,76.77
2019-02-12T21:34:11.075Z,73.00
2019-02-12T21:36:40.291Z,71.43
2019-02-12T21:39:10.805Z,62.77
2019-02-12T21:41:39.998Z,78.07
2019-02-12T21:44:09.151Z,68.40
2019-02-12T21:46:38.306Z,69.57
2019-02-12T21:49:07.483Z,91.40
2019-02-12T21:51:36.619Z,70.73
2019-02-12T21:54:05.755Z,81.30
2019-02-12T21:56:34.926Z,78.80
2019-02-12T21:59:04.109Z,70.50
2019-02-12T22:01:33.334Z,75.63
2019-02-12T22:04:02.462Z,65.60
2019-02-12T22:06:31.730Z,68.67
2019-02-12T22:09:01.563Z,71.03
2019-02-12T22:11:30.766Z,69.70
2019-02-12T22:14:00.018Z,63.33
2019-02-12T22:16:29.201Z,72.60
2019-02-12T22:18:58.365Z,78.23
2019-02-12T22:21:27.534Z,72.80
2019-02-12T22:23:56.777Z,67.57
2019-02-12T22:26:25.942Z,66.07
2019-02-12T22:28:55.086Z,71.67
2019-02-12T22:31:24.242Z,59.23
2019-02-12T22:33:53.402Z,58.30
2019-02-12T22:36:22.596Z,57.00
2019-02-12T22:38:51.789Z,61.43
2019-02-12T22:41:20.943Z,57.37
2019-02-12T22:43:50.204Z,56.60
2019-02-12T22:46:20.002Z,50.90
2019-02-12T22:48:49.542Z,54.47
2019-02-12T22:51:18.781Z,60.43
2019-02-12T22:53:48.060Z,53.80
2019-02-12T22:56:17.229Z,53.90
2019-02-12T22:58:46.384Z,52.50
2019-02-12T23:01:15.791Z,46.90
2019-02-12T23:03:44.919Z,44.00
2019-02-12T23:06:14.203Z,48.80
2019-02-12T23:08:43.374Z,46.50
2019-02-12T23:11:12.555Z,44.73
2019-02-12T23:13:41.691Z,35.20
2019-02-12T23:16:10.987Z,39.37
2019-02-12T23:18:40.123Z,40.70
2019-02-12T23:21:09.321Z,33.53
2019-02-12T23:23:38.438Z,35.67
2019-02-12T23:26:08.334Z,34.07
2019-02-12T23:28:37.522Z,36.33
2019-02-12T23:31:06.693Z,40.10
2019-02-12T23:33:36.089Z,36.40
2019-02-12T23:36:05.378Z,43.40
2019-02-12T23:38:34.656Z,43.53
2019-02-12T23:41:03.780Z,47.20
2019-02-12T23:43:33.003Z,49.17
2019-02-12T23:46:02.166Z,46.90
2019-02-12T23:48:31.306Z,48.97
2019-02-12T23:51:00.514Z,43.87
2019-02-12T23:53:29.655Z,36.40
2019-02-12T23:55:58.782Z,43.80
2019-02-12T23:58:28.030Z,43.97
